sensor_id;sensor_type;location;lat;lon;timestamp;P1;durP1;ratioP1;P2;durP2;ratioP2
20159;SDS011;50187;50.492;12.134;2023-07-13T00:01:48;2.00;;;1.73;;
20159;SDS011;50187;50.492;12.134;2023-07-13T00:04:16;2.90;;;1.90;;
20159;SDS011;50187;50.492;12.134;2023-07-13T00:06:45;1.87;;;1.77;;
20159;SDS011;50187;50.492;12.134;2023-07-13T00:09:12;2.00;;;1.90;;
20159;SDS011;50187;50.492;12.134;2023-07-13T00:11:40;1.83;;;1.73;;
20159;SDS011;50187;50.492;12.134;2023-07-13T00:14:07;1.70;;;1.60;;
20159;SDS011;50187;50.492;12.134;2023-07-13T00:16:36;1.80;;;1.70;;
20159;SDS011;50187;50.492;12.134;2023-07-13T00:19:04;2.07;;;1.90;;
20159;SDS011;50187;50.492;12.134;2023-07-13T00:21:32;1.90;;;1.80;;
20159;SDS011;50187;50.492;12.134;2023-07-13T00:23:59;2.03;;;1.70;;
20159;SDS011;50187;50.492;12.134;2023-07-13T00:26:26;1.70;;;1.60;;
20159;SDS011;50187;50.492;12.134;2023-07-13T00:28:53;1.63;;;1.53;;
20159;SDS011;50187;50.492;12.134;2023-07-13T00:31:21;1.47;;;1.40;;
20159;SDS011;50187;50.492;12.134;2023-07-13T00:33:47;2.20;;;2.00;;
20159;SDS011;50187;50.492;12.134;2023-07-13T00:36:14;1.80;;;1.70;;
20159;SDS011;50187;50.492;12.134;2023-07-13T00:38:41;2.63;;;1.70;;
20159;SDS011;50187;50.492;12.134;2023-07-13T00:41:08;2.03;;;1.80;;
20159;SDS011;50187;50.492;12.134;2023-07-13T00:43:35;1.70;;;1.60;;
20159;SDS011;50187;50.492;12.134;2023-07-13T00:46:12;1.80;;;1.70;;
20159;SDS011;50187;50.492;12.134;2023-07-13T00:48:41;1.70;;;1.60;;
20159;SDS011;50187;50.492;12.134;2023-07-13T00:51:14;1.70;;;1.60;;
20159;SDS011;50187;50.492;12.134;2023-07-13T00:53:45;1.67;;;1.57;;
20159;SDS011;50187;50.492;12.134;2023-07-13T00:56:11;2.40;;;1.63;;
20159;SDS011;50187;50.492;12.134;2023-07-13T00:58:39;1.80;;;1.70;;
20159;SDS011;50187;50.492;12.134;2023-07-13T01:01:06;1.70;;;1.60;;
20159;SDS011;50187;50.492;12.134;2023-07-13T01:03:32;2.00;;;1.80;;
20159;SDS011;50187;50.492;12.134;2023-07-13T01:06:00;1.70;;;1.60;;
20159;SDS011;50187;50.492;12.134;2023-07-13T01:08:27;1.37;;;1.27;;
20159;SDS011;50187;50.492;12.134;2023-07-13T01:10:55;1.77;;;1.67;;
20159;SDS011;50187;50.492;12.134;2023-07-13T01:13:23;1.93;;;1.67;;
20159;SDS011;50187;50.492;12.134;2023-07-13T01:15:51;1.67;;;1.57;;
20159;SDS011;50187;50.492;12.134;2023-07-13T01:18:20;2.10;;;1.80;;
20159;SDS011;50187;50.492;12.134;2023-07-13T01:20:53;1.90;;;1.80;;
20159;SDS011;50187;50.492;12.134;2023-07-13T01:23:20;1.97;;;1.73;;
20159;SDS011;50187;50.492;12.134;2023-07-13T01:25:48;1.73;;;1.63;;
20159;SDS011;50187;50.492;12.134;2023-07-13T01:28:15;1.57;;;1.47;;
20159;SDS011;50187;50.492;12.134;2023-07-13T01:30:43;1.60;;;1.50;;
20159;SDS011;50187;50.492;12.134;2023-07-13T01:33:13;1.50;;;1.40;;
20159;SDS011;50187;50.492;12.134;2023-07-13T01:35:45;3.03;;;1.73;;
20159;SDS011;50187;50.492;12.134;2023-07-13T01:38:15;1.83;;;1.73;;
20159;SDS011;50187;50.492;12.134;2023-07-13T01:40:44;1.60;;;1.50;;
20159;SDS011;50187;50.492;12.134;2023-07-13T01:43:11;1.80;;;1.70;;
20159;SDS011;50187;50.492;12.134;2023-07-13T01:45:37;1.80;;;1.70;;
20159;SDS011;50187;50.492;12.134;2023-07-13T01:48:04;2.10;;;1.90;;
20159;SDS011;50187;50.492;12.134;2023-07-13T01:50:33;2.00;;;1.90;;
20159;SDS011;50187;50.492;12.134;2023-07-13T01:53:00;1.67;;;1.57;;
20159;SDS011;50187;50.492;12.134;2023-07-13T01:55:27;1.73;;;1.63;;
20159;SDS011;50187;50.492;12.134;2023-07-13T01:57:55;1.67;;;1.57;;
20159;SDS011;50187;50.492;12.134;2023-07-13T02:00:22;1.80;;;1.70;;
20159;SDS011;50187;50.492;12.134;2023-07-13T02:02:50;1.67;;;1.57;;
20159;SDS011;50187;50.492;12.134;2023-07-13T02:05:18;1.57;;;1.47;;
20159;SDS011;50187;50.492;12.134;2023-07-13T02:07:46;1.67;;;1.57;;
20159;SDS011;50187;50.492;12.134;2023-07-13T02:10:13;1.70;;;1.60;;
20159;SDS011;50187;50.492;12.134;2023-07-13T02:12:40;1.57;;;1.47;;
20159;SDS011;50187;50.492;12.134;2023-07-13T02:15:08;1.60;;;1.50;;
20159;SDS011;50187;50.492;12.134;2023-07-13T02:17:36;1.60;;;1.50;;
20159;SDS011;50187;50.492;12.134;2023-07-13T02:20:03;1.60;;;1.50;;
20159;SDS011;50187;50.492;12.134;2023-07-13T02:22:31;1.60;;;1.50;;
20159;SDS011;50187;50.492;12.134;2023-07-13T02:24:57;2.17;;;1.97;;
20159;SDS011;50187;50.492;12.134;2023-07-13T02:27:24;1.67;;;1.57;;
20159;SDS011;50187;50.492;12.134;2023-07-13T02:29:51;1.77;;;1.63;;
20159;SDS011;50187;50.492;12.134;2023-07-13T02:32:19;1.60;;;1.50;;
20159;SDS011;50187;50.492;12.134;2023-07-13T02:34:46;1.50;;;1.40;;
20159;SDS011;50187;50.492;12.134;2023-07-13T02:37:12;1.60;;;1.50;;
20159;SDS011;50187;50.492;12.134;2023-07-13T02:39:39;1.67;;;1.57;;
20159;SDS011;50187;50.492;12.134;2023-07-13T02:42:05;1.50;;;1.40;;
20159;SDS011;50187;50.492;12.134;2023-07-13T02:44:33;1.53;;;1.43;;
20159;SDS011;50187;50.492;12.134;2023-07-13T02:46:59;1.70;;;1.60;;
20159;SDS011;50187;50.492;12.134;2023-07-13T02:49:26;1.30;;;1.30;;
20159;SDS011;50187;50.492;12.134;2023-07-13T02:51:53;2.73;;;1.60;;
20159;SDS011;50187;50.492;12.134;2023-07-13T02:54:19;1.57;;;1.47;;
20159;SDS011;50187;50.492;12.134;2023-07-13T02:56:46;1.80;;;1.70;;
20159;SDS011;50187;50.492;12.134;2023-07-13T02:59:13;1.70;;;1.60;;
20159;SDS011;50187;50.492;12.134;2023-07-13T03:01:39;1.53;;;1.43;;
20159;SDS011;50187;50.492;12.134;2023-07-13T03:04:07;1.57;;;1.47;;
20159;SDS011;50187;50.492;12.134;2023-07-13T03:06:34;1.60;;;1.50;;
20159;SDS011;50187;50.492;12.134;2023-07-13T03:09:02;1.87;;;1.77;;
20159;SDS011;50187;50.492;12.134;2023-07-13T03:11:32;2.17;;;1.30;;
20159;SDS011;50187;50.492;12.134;2023-07-13T03:14:11;1.33;;;1.23;;
20159;SDS011;50187;50.492;12.134;2023-07-13T03:16:38;1.70;;;1.60;;
20159;SDS011;50187;50.492;12.134;2023-07-13T03:19:05;1.60;;;1.50;;
20159;SDS011;50187;50.492;12.134;2023-07-13T03:21:32;1.40;;;1.40;;
20159;SDS011;50187;50.492;12.134;2023-07-13T03:23:59;2.53;;;1.70;;
20159;SDS011;50187;50.492;12.134;2023-07-13T03:26:27;1.27;;;1.27;;
20159;SDS011;50187;50.492;12.134;2023-07-13T03:28:55;1.60;;;1.50;;
20159;SDS011;50187;50.492;12.134;2023-07-13T03:31:24;3.40;;;1.50;;
20159;SDS011;50187;50.492;12.134;2023-07-13T03:33:52;1.67;;;1.57;;
20159;SDS011;50187;50.492;12.134;2023-07-13T03:36:20;1.60;;;1.50;;
20159;SDS011;50187;50.492;12.134;2023-07-13T03:38:55;2.53;;;1.50;;
20159;SDS011;50187;50.492;12.134;2023-07-13T03:41:29;1.60;;;1.50;;
20159;SDS011;50187;50.492;12.134;2023-07-13T03:43:58;1.67;;;1.40;;
20159;SDS011;50187;50.492;12.134;2023-07-13T03:46:26;2.30;;;1.77;;
20159;SDS011;50187;50.492;12.134;2023-07-13T03:48:52;1.50;;;1.40;;
20159;SDS011;50187;50.492;12.134;2023-07-13T03:51:19;2.00;;;1.50;;
20159;SDS011;50187;50.492;12.134;2023-07-13T03:53:46;1.47;;;1.47;;
20159;SDS011;50187;50.492;12.134;2023-07-13T03:56:16;1.70;;;1.60;;
20159;SDS011;50187;50.492;12.134;2023-07-13T03:58:45;1.40;;;1.30;;
20159;SDS011;50187;50.492;12.134;2023-07-13T04:01:16;1.50;;;1.40;;
20159;SDS011;50187;50.492;12.134;2023-07-13T04:03:45;1.30;;;1.30;;
20159;SDS011;50187;50.492;12.134;2023-07-13T04:06:17;1.63;;;1.37;;
20159;SDS011;50187;50.492;12.134;2023-07-13T04:08:54;1.60;;;1.50;;
20159;SDS011;50187;50.492;12.134;2023-07-13T04:11:26;1.50;;;1.40;;
20159;SDS011;50187;50.492;12.134;2023-07-13T04:13:55;1.60;;;1.50;;
20159;SDS011;50187;50.492;12.134;2023-07-13T04:16:22;1.40;;;1.30;;
20159;SDS011;50187;50.492;12.134;2023-07-13T04:18:48;1.13;;;1.13;;
20159;SDS011;50187;50.492;12.134;2023-07-13T04:21:16;1.40;;;1.40;;
20159;SDS011;50187;50.492;12.134;2023-07-13T04:23:43;1.80;;;1.47;;
20159;SDS011;50187;50.492;12.134;2023-07-13T04:26:10;2.00;;;1.80;;
20159;SDS011;50187;50.492;12.134;2023-07-13T04:28:37;1.40;;;1.20;;
20159;SDS011;50187;50.492;12.134;2023-07-13T04:31:04;1.40;;;1.30;;
20159;SDS011;50187;50.492;12.134;2023-07-13T04:33:30;1.23;;;1.23;;
20159;SDS011;50187;50.492;12.134;2023-07-13T04:35:57;1.70;;;1.60;;
20159;SDS011;50187;50.492;12.134;2023-07-13T04:38:26;1.80;;;1.70;;
20159;SDS011;50187;50.492;12.134;2023-07-13T04:40:55;1.27;;;1.27;;
20159;SDS011;50187;50.492;12.134;2023-07-13T04:43:23;1.83;;;1.43;;
20159;SDS011;50187;50.492;12.134;2023-07-13T04:45:50;1.60;;;1.50;;
20159;SDS011;50187;50.492;12.134;2023-07-13T04:48:18;1.60;;;1.40;;
20159;SDS011;50187;50.492;12.134;2023-07-13T04:50:45;2.00;;;1.47;;
20159;SDS011;50187;50.492;12.134;2023-07-13T04:53:12;1.33;;;1.33;;
20159;SDS011;50187;50.492;12.134;2023-07-13T04:55:39;1.70;;;1.60;;
20159;SDS011;50187;50.492;12.134;2023-07-13T04:58:07;1.40;;;1.30;;
20159;SDS011;50187;50.492;12.134;2023-07-13T05:00:33;1.73;;;1.63;;
20159;SDS011;50187;50.492;12.134;2023-07-13T05:03:00;1.20;;;1.20;;
20159;SDS011;50187;50.492;12.134;2023-07-13T05:05:27;1.80;;;1.33;;
20159;SDS011;50187;50.492;12.134;2023-07-13T05:07:54;2.90;;;1.63;;
20159;SDS011;50187;50.492;12.134;2023-07-13T05:10:20;1.90;;;1.50;;
20159;SDS011;50187;50.492;12.134;2023-07-13T05:12:47;1.57;;;1.50;;
20159;SDS011;50187;50.492;12.134;2023-07-13T05:15:14;1.53;;;1.43;;
20159;SDS011;50187;50.492;12.134;2023-07-13T05:17:41;2.43;;;1.30;;
20159;SDS011;50187;50.492;12.134;2023-07-13T05:20:08;1.57;;;1.40;;
20159;SDS011;50187;50.492;12.134;2023-07-13T05:22:35;1.50;;;1.40;;
20159;SDS011;50187;50.492;12.134;2023-07-13T05:25:04;4.53;;;1.70;;
20159;SDS011;50187;50.492;12.134;2023-07-13T05:27:32;11.37;;;3.13;;
20159;SDS011;50187;50.492;12.134;2023-07-13T05:30:00;8.57;;;2.60;;
20159;SDS011;50187;50.492;12.134;2023-07-13T05:32:26;6.73;;;2.50;;
20159;SDS011;50187;50.492;12.134;2023-07-13T05:34:53;6.67;;;2.60;;
20159;SDS011;50187;50.492;12.134;2023-07-13T05:37:19;2.77;;;2.10;;
20159;SDS011;50187;50.492;12.134;2023-07-13T05:39:46;2.90;;;2.03;;
20159;SDS011;50187;50.492;12.134;2023-07-13T05:42:13;4.87;;;2.33;;
20159;SDS011;50187;50.492;12.134;2023-07-13T05:44:40;2.67;;;2.00;;
20159;SDS011;50187;50.492;12.134;2023-07-13T05:47:07;3.70;;;2.33;;
20159;SDS011;50187;50.492;12.134;2023-07-13T05:49:34;2.60;;;2.20;;
20159;SDS011;50187;50.492;12.134;2023-07-13T05:52:00;7.00;;;2.80;;
20159;SDS011;50187;50.492;12.134;2023-07-13T05:54:27;5.47;;;2.60;;
20159;SDS011;50187;50.492;12.134;2023-07-13T05:56:54;6.67;;;2.17;;
20159;SDS011;50187;50.492;12.134;2023-07-13T05:59:20;8.60;;;3.43;;
20159;SDS011;50187;50.492;12.134;2023-07-13T06:01:47;3.67;;;2.60;;
20159;SDS011;50187;50.492;12.134;2023-07-13T06:04:13;6.13;;;2.13;;
20159;SDS011;50187;50.492;12.134;2023-07-13T06:06:40;2.77;;;2.10;;
20159;SDS011;50187;50.492;12.134;2023-07-13T06:09:06;3.63;;;2.20;;
20159;SDS011;50187;50.492;12.134;2023-07-13T06:11:33;3.63;;;2.30;;
20159;SDS011;50187;50.492;12.134;2023-07-13T06:14:01;3.10;;;2.33;;
20159;SDS011;50187;50.492;12.134;2023-07-13T06:16:28;6.17;;;2.33;;
20159;SDS011;50187;50.492;12.134;2023-07-13T06:18:54;3.77;;;2.40;;
20159;SDS011;50187;50.492;12.134;2023-07-13T06:21:22;5.13;;;2.43;;
20159;SDS011;50187;50.492;12.134;2023-07-13T06:23:50;4.50;;;2.40;;
20159;SDS011;50187;50.492;12.134;2023-07-13T06:26:18;4.80;;;2.30;;
20159;SDS011;50187;50.492;12.134;2023-07-13T06:28:46;4.20;;;2.27;;
20159;SDS011;50187;50.492;12.134;2023-07-13T06:31:13;7.40;;;2.50;;
20159;SDS011;50187;50.492;12.134;2023-07-13T06:33:41;3.00;;;2.40;;
20159;SDS011;50187;50.492;12.134;2023-07-13T06:36:08;4.93;;;2.60;;
20159;SDS011;50187;50.492;12.134;2023-07-13T06:38:35;2.33;;;2.00;;
20159;SDS011;50187;50.492;12.134;2023-07-13T06:41:03;3.60;;;2.17;;
20159;SDS011;50187;50.492;12.134;2023-07-13T06:43:30;2.30;;;2.10;;
20159;SDS011;50187;50.492;12.134;2023-07-13T06:45:58;7.30;;;2.50;;
20159;SDS011;50187;50.492;12.134;2023-07-13T06:48:25;2.37;;;2.07;;
20159;SDS011;50187;50.492;12.134;2023-07-13T06:50:51;6.03;;;2.37;;
20159;SDS011;50187;50.492;12.134;2023-07-13T06:53:19;2.40;;;2.00;;
20159;SDS011;50187;50.492;12.134;2023-07-13T06:55:46;2.77;;;2.47;;
20159;SDS011;50187;50.492;12.134;2023-07-13T06:58:17;2.87;;;1.83;;
20159;SDS011;50187;50.492;12.134;2023-07-13T07:00:45;4.30;;;2.10;;
20159;SDS011;50187;50.492;12.134;2023-07-13T07:03:12;2.20;;;1.90;;
20159;SDS011;50187;50.492;12.134;2023-07-13T07:05:39;2.00;;;1.77;;
20159;SDS011;50187;50.492;12.134;2023-07-13T07:08:06;2.13;;;1.60;;
20159;SDS011;50187;50.492;12.134;2023-07-13T07:10:33;1.70;;;1.60;;
20159;SDS011;50187;50.492;12.134;2023-07-13T07:13:00;2.50;;;1.53;;
20159;SDS011;50187;50.492;12.134;2023-07-13T07:15:26;1.93;;;1.70;;
20159;SDS011;50187;50.492;12.134;2023-07-13T07:17:53;2.30;;;1.50;;
20159;SDS011;50187;50.492;12.134;2023-07-13T07:20:20;2.33;;;1.67;;
20159;SDS011;50187;50.492;12.134;2023-07-13T07:22:47;2.20;;;1.80;;
20159;SDS011;50187;50.492;12.134;2023-07-13T07:25:15;2.13;;;1.73;;
20159;SDS011;50187;50.492;12.134;2023-07-13T07:27:42;3.00;;;1.87;;
20159;SDS011;50187;50.492;12.134;2023-07-13T07:30:11;2.43;;;1.60;;
20159;SDS011;50187;50.492;12.134;2023-07-13T07:32:41;1.77;;;1.67;;
20159;SDS011;50187;50.492;12.134;2023-07-13T07:35:23;1.97;;;1.50;;
20159;SDS011;50187;50.492;12.134;2023-07-13T07:37:50;2.50;;;1.53;;
20159;SDS011;50187;50.492;12.134;2023-07-13T07:40:17;1.63;;;1.40;;
20159;SDS011;50187;50.492;12.134;2023-07-13T07:42:47;2.20;;;1.40;;
20159;SDS011;50187;50.492;12.134;2023-07-13T07:45:14;2.70;;;1.93;;
20159;SDS011;50187;50.492;12.134;2023-07-13T07:47:41;4.20;;;1.80;;
20159;SDS011;50187;50.492;12.134;2023-07-13T07:50:08;3.83;;;1.57;;
20159;SDS011;50187;50.492;12.134;2023-07-13T07:52:35;2.93;;;1.47;;
20159;SDS011;50187;50.492;12.134;2023-07-13T07:55:03;1.33;;;1.33;;
20159;SDS011;50187;50.492;12.134;2023-07-13T07:57:35;1.80;;;1.47;;
20159;SDS011;50187;50.492;12.134;2023-07-13T08:00:04;1.50;;;1.40;;
20159;SDS011;50187;50.492;12.134;2023-07-13T08:02:39;1.40;;;1.30;;
20159;SDS011;50187;50.492;12.134;2023-07-13T08:05:27;2.40;;;1.77;;
20159;SDS011;50187;50.492;12.134;2023-07-13T08:07:56;2.57;;;1.90;;
20159;SDS011;50187;50.492;12.134;2023-07-13T08:10:23;2.13;;;1.67;;
20159;SDS011;50187;50.492;12.134;2023-07-13T08:12:50;2.30;;;1.70;;
20159;SDS011;50187;50.492;12.134;2023-07-13T08:15:19;4.07;;;1.53;;
20159;SDS011;50187;50.492;12.134;2023-07-13T08:17:47;2.37;;;1.73;;
20159;SDS011;50187;50.492;12.134;2023-07-13T08:20:14;1.63;;;1.47;;
20159;SDS011;50187;50.492;12.134;2023-07-13T08:22:41;2.97;;;1.40;;
20159;SDS011;50187;50.492;12.134;2023-07-13T08:25:08;1.90;;;1.30;;
20159;SDS011;50187;50.492;12.134;2023-07-13T08:27:34;1.57;;;1.47;;
20159;SDS011;50187;50.492;12.134;2023-07-13T08:30:01;1.63;;;1.50;;
20159;SDS011;50187;50.492;12.134;2023-07-13T08:32:28;1.43;;;1.33;;
20159;SDS011;50187;50.492;12.134;2023-07-13T08:34:55;1.63;;;1.53;;
20159;SDS011;50187;50.492;12.134;2023-07-13T08:37:22;2.13;;;1.40;;
20159;SDS011;50187;50.492;12.134;2023-07-13T08:39:48;6.43;;;2.00;;
20159;SDS011;50187;50.492;12.134;2023-07-13T08:47:22;5.13;;;1.70;;
20159;SDS011;50187;50.492;12.134;2023-07-13T08:49:50;1.83;;;1.53;;
20159;SDS011;50187;50.492;12.134;2023-07-13T08:52:21;2.97;;;1.43;;
20159;SDS011;50187;50.492;12.134;2023-07-13T08:54:50;3.10;;;1.50;;
20159;SDS011;50187;50.492;12.134;2023-07-13T08:57:21;1.60;;;1.50;;
20159;SDS011;50187;50.492;12.134;2023-07-13T08:59:54;4.60;;;1.70;;
20159;SDS011;50187;50.492;12.134;2023-07-13T09:05:06;3.17;;;1.70;;
20159;SDS011;50187;50.492;12.134;2023-07-13T09:15:46;4.80;;;1.63;;
20159;SDS011;50187;50.492;12.134;2023-07-13T09:20:47;2.53;;;1.60;;
20159;SDS011;50187;50.492;12.134;2023-07-13T09:23:19;1.60;;;1.40;;
20159;SDS011;50187;50.492;12.134;2023-07-13T09:25:48;1.83;;;1.40;;
20159;SDS011;50187;50.492;12.134;2023-07-13T09:28:25;2.17;;;1.80;;
20159;SDS011;50187;50.492;12.134;2023-07-13T09:33:32;2.30;;;2.03;;
20159;SDS011;50187;50.492;12.134;2023-07-13T09:36:03;3.00;;;1.63;;
20159;SDS011;50187;50.492;12.134;2023-07-13T09:38:41;3.37;;;1.50;;
20159;SDS011;50187;50.492;12.134;2023-07-13T09:41:13;3.63;;;2.27;;
20159;SDS011;50187;50.492;12.134;2023-07-13T09:44:11;1.80;;;1.70;;
20159;SDS011;50187;50.492;12.134;2023-07-13T09:46:52;2.27;;;1.67;;
20159;SDS011;50187;50.492;12.134;2023-07-13T09:49:23;3.97;;;1.57;;
20159;SDS011;50187;50.492;12.134;2023-07-13T09:52:04;1.63;;;1.53;;
20159;SDS011;50187;50.492;12.134;2023-07-13T09:54:33;2.20;;;1.83;;
20159;SDS011;50187;50.492;12.134;2023-07-13T09:57:02;3.03;;;1.67;;
20159;SDS011;50187;50.492;12.134;2023-07-13T09:59:32;4.27;;;1.97;;
20159;SDS011;50187;50.492;12.134;2023-07-13T10:05:04;2.63;;;1.87;;
20159;SDS011;50187;50.492;12.134;2023-07-13T10:07:32;3.33;;;1.53;;
20159;SDS011;50187;50.492;12.134;2023-07-13T10:10:12;1.97;;;1.67;;
20159;SDS011;50187;50.492;12.134;2023-07-13T10:12:48;1.70;;;1.60;;
20159;SDS011;50187;50.492;12.134;2023-07-13T10:15:17;2.30;;;1.77;;
20159;SDS011;50187;50.492;12.134;2023-07-13T10:17:50;6.53;;;1.97;;
20159;SDS011;50187;50.492;12.134;2023-07-13T10:20:18;1.90;;;1.80;;
20159;SDS011;50187;50.492;12.134;2023-07-13T10:22:50;2.67;;;1.67;;
20159;SDS011;50187;50.492;12.134;2023-07-13T10:25:26;1.70;;;1.60;;
20159;SDS011;50187;50.492;12.134;2023-07-13T10:27:58;1.60;;;1.50;;
20159;SDS011;50187;50.492;12.134;2023-07-13T10:30:34;2.83;;;1.60;;
20159;SDS011;50187;50.492;12.134;2023-07-13T10:33:09;1.90;;;1.57;;
20159;SDS011;50187;50.492;12.134;2023-07-13T10:35:38;2.47;;;1.73;;
20159;SDS011;50187;50.492;12.134;2023-07-13T10:38:10;2.20;;;1.60;;
20159;SDS011;50187;50.492;12.134;2023-07-13T10:40:41;2.10;;;1.70;;
20159;SDS011;50187;50.492;12.134;2023-07-13T10:43:16;1.97;;;1.70;;
20159;SDS011;50187;50.492;12.134;2023-07-13T10:45:46;1.87;;;1.77;;
20159;SDS011;50187;50.492;12.134;2023-07-13T10:48:16;2.43;;;1.63;;
20159;SDS011;50187;50.492;12.134;2023-07-13T10:50:44;3.13;;;1.50;;
20159;SDS011;50187;50.492;12.134;2023-07-13T10:53:27;2.03;;;1.80;;
20159;SDS011;50187;50.492;12.134;2023-07-13T10:55:57;1.70;;;1.50;;
20159;SDS011;50187;50.492;12.134;2023-07-13T10:58:34;1.80;;;1.57;;
20159;SDS011;50187;50.492;12.134;2023-07-13T11:03:33;2.50;;;1.40;;
20159;SDS011;50187;50.492;12.134;2023-07-13T11:06:07;5.20;;;1.70;;
20159;SDS011;50187;50.492;12.134;2023-07-13T11:08:36;2.57;;;1.50;;
20159;SDS011;50187;50.492;12.134;2023-07-13T11:18:48;1.40;;;1.40;;
20159;SDS011;50187;50.492;12.134;2023-07-13T11:21:18;2.07;;;1.67;;
20159;SDS011;50187;50.492;12.134;2023-07-13T11:24:18;2.00;;;1.67;;
20159;SDS011;50187;50.492;12.134;2023-07-13T11:31:41;2.77;;;1.57;;
20159;SDS011;50187;50.492;12.134;2023-07-13T11:34:14;5.03;;;1.67;;
20159;SDS011;50187;50.492;12.134;2023-07-13T11:36:42;3.20;;;1.47;;
20159;SDS011;50187;50.492;12.134;2023-07-13T11:41:54;9.83;;;2.33;;
20159;SDS011;50187;50.492;12.134;2023-07-13T11:44:28;10.07;;;2.90;;
20159;SDS011;50187;50.492;12.134;2023-07-13T11:46:56;10.27;;;2.47;;
20159;SDS011;50187;50.492;12.134;2023-07-13T11:49:30;11.63;;;2.40;;
20159;SDS011;50187;50.492;12.134;2023-07-13T11:51:59;6.97;;;2.37;;
20159;SDS011;50187;50.492;12.134;2023-07-13T11:54:30;6.03;;;1.87;;
20159;SDS011;50187;50.492;12.134;2023-07-13T11:57:00;2.50;;;1.40;;
20159;SDS011;50187;50.492;12.134;2023-07-13T11:59:51;2.57;;;1.87;;
20159;SDS011;50187;50.492;12.134;2023-07-13T12:02:29;2.47;;;1.47;;
20159;SDS011;50187;50.492;12.134;2023-07-13T12:04:57;4.30;;;1.70;;
20159;SDS011;50187;50.492;12.134;2023-07-13T12:07:27;4.57;;;1.70;;
20159;SDS011;50187;50.492;12.134;2023-07-13T12:10:03;1.63;;;1.50;;
20159;SDS011;50187;50.492;12.134;2023-07-13T12:12:51;2.50;;;1.37;;
20159;SDS011;50187;50.492;12.134;2023-07-13T12:15:27;4.53;;;1.50;;
20159;SDS011;50187;50.492;12.134;2023-07-13T12:18:11;3.50;;;1.70;;
20159;SDS011;50187;50.492;12.134;2023-07-13T12:20:39;2.60;;;1.70;;
20159;SDS011;50187;50.492;12.134;2023-07-13T12:26:03;2.90;;;1.53;;
20159;SDS011;50187;50.492;12.134;2023-07-13T12:31:06;5.73;;;2.33;;
20159;SDS011;50187;50.492;12.134;2023-07-13T12:33:46;6.33;;;1.80;;
20159;SDS011;50187;50.492;12.134;2023-07-13T12:36:13;3.33;;;1.60;;
20159;SDS011;50187;50.492;12.134;2023-07-13T12:38:40;3.90;;;1.93;;
20159;SDS011;50187;50.492;12.134;2023-07-13T12:41:07;1.70;;;1.60;;
20159;SDS011;50187;50.492;12.134;2023-07-13T12:43:36;1.90;;;1.33;;
20159;SDS011;50187;50.492;12.134;2023-07-13T12:46:04;1.87;;;1.53;;
20159;SDS011;50187;50.492;12.134;2023-07-13T12:48:42;2.17;;;1.60;;
20159;SDS011;50187;50.492;12.134;2023-07-13T12:51:26;1.30;;;1.20;;
20159;SDS011;50187;50.492;12.134;2023-07-13T12:53:59;1.43;;;1.33;;
20159;SDS011;50187;50.492;12.134;2023-07-13T12:56:37;2.43;;;1.30;;
20159;SDS011;50187;50.492;12.134;2023-07-13T12:59:03;2.43;;;1.73;;
20159;SDS011;50187;50.492;12.134;2023-07-13T13:01:33;1.37;;;1.10;;
20159;SDS011;50187;50.492;12.134;2023-07-13T13:04:03;7.27;;;2.67;;
20159;SDS011;50187;50.492;12.134;2023-07-13T13:06:33;4.80;;;2.33;;
20159;SDS011;50187;50.492;12.134;2023-07-13T13:09:02;3.03;;;1.87;;
20159;SDS011;50187;50.492;12.134;2023-07-13T13:11:31;4.40;;;1.70;;
20159;SDS011;50187;50.492;12.134;2023-07-13T13:13:58;7.27;;;2.20;;
20159;SDS011;50187;50.492;12.134;2023-07-13T13:18:55;6.37;;;1.60;;
20159;SDS011;50187;50.492;12.134;2023-07-13T13:21:25;2.70;;;2.00;;
20159;SDS011;50187;50.492;12.134;2023-07-13T13:23:52;3.57;;;1.60;;
20159;SDS011;50187;50.492;12.134;2023-07-13T13:26:23;5.90;;;1.87;;
20159;SDS011;50187;50.492;12.134;2023-07-13T13:28:50;1.90;;;1.57;;
20159;SDS011;50187;50.492;12.134;2023-07-13T13:31:16;4.20;;;2.20;;
20159;SDS011;50187;50.492;12.134;2023-07-13T13:33:44;3.77;;;2.00;;
20159;SDS011;50187;50.492;12.134;2023-07-13T13:36:13;3.13;;;1.90;;
20159;SDS011;50187;50.492;12.134;2023-07-13T13:38:42;4.67;;;2.20;;
20159;SDS011;50187;50.492;12.134;2023-07-13T13:41:09;2.50;;;1.73;;
20159;SDS011;50187;50.492;12.134;2023-07-13T13:43:37;4.00;;;1.63;;
20159;SDS011;50187;50.492;12.134;2023-07-13T13:46:05;2.37;;;1.70;;
20159;SDS011;50187;50.492;12.134;2023-07-13T13:48:48;2.37;;;1.57;;
20159;SDS011;50187;50.492;12.134;2023-07-13T13:51:18;4.00;;;1.47;;
20159;SDS011;50187;50.492;12.134;2023-07-13T13:53:47;4.50;;;1.90;;
20159;SDS011;50187;50.492;12.134;2023-07-13T13:56:15;8.05;;;2.35;;
20159;SDS011;50187;50.492;12.134;2023-07-13T13:58:44;16.63;;;5.47;;
20159;SDS011;50187;50.492;12.134;2023-07-13T14:01:18;13.30;;;4.27;;
20159;SDS011;50187;50.492;12.134;2023-07-13T14:03:47;7.27;;;2.47;;
20159;SDS011;50187;50.492;12.134;2023-07-13T14:06:17;18.30;;;2.63;;
20159;SDS011;50187;50.492;12.134;2023-07-13T14:08:44;4.17;;;1.80;;
20159;SDS011;50187;50.492;12.134;2023-07-13T14:11:12;4.60;;;2.00;;
20159;SDS011;50187;50.492;12.134;2023-07-13T14:13:41;3.77;;;1.80;;
20159;SDS011;50187;50.492;12.134;2023-07-13T14:16:15;7.18;;;1.98;;
20159;SDS011;50187;50.492;12.134;2023-07-13T14:18:44;5.65;;;1.83;;
20159;SDS011;50187;50.492;12.134;2023-07-13T14:21:18;3.13;;;1.70;;
20159;SDS011;50187;50.492;12.134;2023-07-13T14:23:47;3.47;;;1.47;;
20159;SDS011;50187;50.492;12.134;2023-07-13T14:26:16;4.55;;;1.58;;
20159;SDS011;50187;50.492;12.134;2023-07-13T14:28:45;2.63;;;1.58;;
20159;SDS011;50187;50.492;12.134;2023-07-13T14:31:15;7.03;;;2.00;;
20159;SDS011;50187;50.492;12.134;2023-07-13T14:33:43;3.30;;;1.63;;
20159;SDS011;50187;50.492;12.134;2023-07-13T14:39:01;2.78;;;1.30;;
20159;SDS011;50187;50.492;12.134;2023-07-13T14:41:37;4.47;;;1.58;;
20159;SDS011;50187;50.492;12.134;2023-07-13T14:44:13;3.97;;;1.60;;
20159;SDS011;50187;50.492;12.134;2023-07-13T14:46:42;1.87;;;1.03;;
20159;SDS011;50187;50.492;12.134;2023-07-13T14:51:57;4.40;;;1.23;;
20159;SDS011;50187;50.492;12.134;2023-07-13T14:54:26;2.50;;;1.00;;
20159;SDS011;50187;50.492;12.134;2023-07-13T14:56:53;2.47;;;1.20;;
20159;SDS011;50187;50.492;12.134;2023-07-13T14:59:20;4.00;;;1.47;;
20159;SDS011;50187;50.492;12.134;2023-07-13T15:01:47;5.03;;;1.50;;
20159;SDS011;50187;50.492;12.134;2023-07-13T15:04:16;3.23;;;1.83;;
20159;SDS011;50187;50.492;12.134;2023-07-13T15:07:00;6.60;;;1.80;;
20159;SDS011;50187;50.492;12.134;2023-07-13T15:09:29;3.53;;;1.40;;
20159;SDS011;50187;50.492;12.134;2023-07-13T15:11:59;5.43;;;1.90;;
20159;SDS011;50187;50.492;12.134;2023-07-13T15:14:26;3.83;;;1.37;;
20159;SDS011;50187;50.492;12.134;2023-07-13T15:16:55;6.43;;;1.40;;
20159;SDS011;50187;50.492;12.134;2023-07-13T15:19:23;3.53;;;1.50;;
20159;SDS011;50187;50.492;12.134;2023-07-13T15:21:54;4.73;;;1.87;;
20159;SDS011;50187;50.492;12.134;2023-07-13T15:24:25;6.35;;;2.13;;
20159;SDS011;50187;50.492;12.134;2023-07-13T15:26:53;4.85;;;1.60;;
20159;SDS011;50187;50.492;12.134;2023-07-13T15:29:20;2.40;;;1.40;;
20159;SDS011;50187;50.492;12.134;2023-07-13T15:31:46;4.50;;;1.60;;
20159;SDS011;50187;50.492;12.134;2023-07-13T15:34:16;1.43;;;1.30;;
20159;SDS011;50187;50.492;12.134;2023-07-13T15:36:47;1.77;;;1.27;;
20159;SDS011;50187;50.492;12.134;2023-07-13T15:39:15;4.60;;;1.77;;
20159;SDS011;50187;50.492;12.134;2023-07-13T15:41:47;1.80;;;1.70;;